<?xml version="1.0" encoding="UTF-8" standalone="no" ?>
<gpx xmlns="http://www.topografix.com/GPX/1/1" xmlns:xsi="http://www.w3.org/2001/XMLSchema-instance" xsi:schemaLocation="http://www.topografix.com/GPX/1/1 http://www.topografix.com/GPX/1/1/gpx.xsd" version="1.1" creator="VisuGPX - https://www.visugpx.com">
  <metadata>
    <name>Cluny - St Gengoux le National - Cluny</name>
    <desc><![CDATA[Randonnée vacances d'Avril en boucle au nord de Cluny. 1ère moitié du parcours sur voie verte.]]></desc>
  </metadata>
  <trk>
    <name><![CDATA[8479663-Cluny - St Gengoux le National]]></name>
    <trkseg>
      <trkpt lat="46.4372" lon="4.65658">
        <ele>265</ele>
        <time>2018-03-28T18:14:15Z</time>
      </trkpt>
      <trkpt lat="46.43681" lon="4.6571">
        <ele>260</ele>
        <time>2018-03-28T18:15:15Z</time>
      </trkpt>
      <trkpt lat="46.43635" lon="4.65719">
        <ele>257</ele>
        <time>2018-03-28T18:16:15Z</time>
      </trkpt>
      <trkpt lat="46.43477" lon="4.65651">
        <ele>248</ele>
        <time>2018-03-28T18:17:15Z</time>
      </trkpt>
      <trkpt lat="46.43434" lon="4.65731">
        <ele>245</ele>
        <time>2018-03-28T18:18:15Z</time>
      </trkpt>
      <trkpt lat="46.43364" lon="4.65816">
        <ele>244</ele>
        <time>2018-03-28T18:19:15Z</time>
      </trkpt>
      <trkpt lat="46.43284" lon="4.65774">
        <ele>251</ele>
        <time>2018-03-28T18:20:15Z</time>
      </trkpt>
      <trkpt lat="46.43209" lon="4.65649">
        <ele>265</ele>
        <time>2018-03-28T18:21:15Z</time>
      </trkpt>
      <trkpt lat="46.43001" lon="4.65824">
        <ele>268</ele>
        <time>2018-03-28T18:22:15Z</time>
      </trkpt>
      <trkpt lat="46.42983" lon="4.65835">
        <ele>269</ele>
        <time>2018-03-28T18:23:15Z</time>
      </trkpt>
      <trkpt lat="46.42991" lon="4.65856">
        <ele>267</ele>
        <time>2018-03-28T18:24:15Z</time>
      </trkpt>
      <trkpt lat="46.42979" lon="4.65886">
        <ele>266</ele>
        <time>2018-03-28T18:25:15Z</time>
      </trkpt>
      <trkpt lat="46.42974" lon="4.65924">
        <ele>264</ele>
        <time>2018-03-28T18:26:15Z</time>
      </trkpt>
      <trkpt lat="46.42969" lon="4.65983">
        <ele>252</ele>
        <time>2018-03-28T18:27:15Z</time>
      </trkpt>
      <trkpt lat="46.42989" lon="4.66009">
        <ele>248</ele>
        <time>2018-03-28T18:28:15Z</time>
      </trkpt>
      <trkpt lat="46.42989" lon="4.66049">
        <ele>242</ele>
        <time>2018-03-28T18:29:15Z</time>
      </trkpt>
      <trkpt lat="46.42995" lon="4.66191">
        <ele>238</ele>
        <time>2018-03-28T18:30:15Z</time>
      </trkpt>
      <trkpt lat="46.42975" lon="4.66189">
        <ele>238</ele>
        <time>2018-03-28T18:31:15Z</time>
      </trkpt>
      <trkpt lat="46.42975" lon="4.6624">
        <ele>239</ele>
        <time>2018-03-28T18:32:15Z</time>
      </trkpt>
      <trkpt lat="46.43009" lon="4.66397">
        <ele>236</ele>
        <time>2018-03-28T18:33:15Z</time>
      </trkpt>
      <trkpt lat="46.4298" lon="4.66595">
        <ele>236</ele>
        <time>2018-03-28T18:34:15Z</time>
      </trkpt>
      <trkpt lat="46.42956" lon="4.66648">
        <ele>239</ele>
        <time>2018-03-28T18:35:15Z</time>
      </trkpt>
      <trkpt lat="46.42937" lon="4.66751">
        <ele>241</ele>
        <time>2018-03-28T18:36:15Z</time>
      </trkpt>
      <trkpt lat="46.42624" lon="4.66606">
        <ele>243</ele>
        <time>2018-03-28T18:37:15Z</time>
      </trkpt>
      <trkpt lat="46.42568" lon="4.66626">
        <ele>245</ele>
        <time>2018-03-28T18:38:15Z</time>
      </trkpt>
      <trkpt lat="46.42637" lon="4.66673">
        <ele>245</ele>
        <time>2018-03-28T18:39:15Z</time>
      </trkpt>
      <trkpt lat="46.42642" lon="4.66704">
        <ele>246</ele>
        <time>2018-03-28T18:40:15Z</time>
      </trkpt>
      <trkpt lat="46.428" lon="4.6679">
        <ele>246</ele>
        <time>2018-03-28T18:41:15Z</time>
      </trkpt>
      <trkpt lat="46.4325" lon="4.67182">
        <ele>251</ele>
        <time>2018-03-28T18:42:15Z</time>
      </trkpt>
      <trkpt lat="46.43387" lon="4.67243">
        <ele>250</ele>
        <time>2018-03-28T18:43:15Z</time>
      </trkpt>
      <trkpt lat="46.43514" lon="4.67254">
        <ele>245</ele>
        <time>2018-03-28T18:44:15Z</time>
      </trkpt>
      <trkpt lat="46.44048" lon="4.67223">
        <ele>242</ele>
        <time>2018-03-28T18:45:15Z</time>
      </trkpt>
      <trkpt lat="46.44436" lon="4.67108">
        <ele>242</ele>
        <time>2018-03-28T18:46:15Z</time>
      </trkpt>
      <trkpt lat="46.44606" lon="4.67155">
        <ele>247</ele>
        <time>2018-03-28T18:47:15Z</time>
      </trkpt>
      <trkpt lat="46.44827" lon="4.67277">
        <ele>248</ele>
        <time>2018-03-28T18:48:15Z</time>
      </trkpt>
      <trkpt lat="46.44925" lon="4.67277">
        <ele>243</ele>
        <time>2018-03-28T18:49:15Z</time>
      </trkpt>
      <trkpt lat="46.44974" lon="4.6731">
        <ele>245</ele>
        <time>2018-03-28T18:50:15Z</time>
      </trkpt>
      <trkpt lat="46.45016" lon="4.67355">
        <ele>250</ele>
        <time>2018-03-28T18:51:15Z</time>
      </trkpt>
      <trkpt lat="46.45178" lon="4.67422">
        <ele>249</ele>
        <time>2018-03-28T18:52:15Z</time>
      </trkpt>
      <trkpt lat="46.45366" lon="4.67467">
        <ele>242</ele>
        <time>2018-03-28T18:53:15Z</time>
      </trkpt>
      <trkpt lat="46.45656" lon="4.6748">
        <ele>233</ele>
        <time>2018-03-28T18:54:15Z</time>
      </trkpt>
      <trkpt lat="46.46538" lon="4.67651">
        <ele>228</ele>
        <time>2018-03-28T18:55:15Z</time>
      </trkpt>
      <trkpt lat="46.4758" lon="4.67934">
        <ele>229</ele>
        <time>2018-03-28T18:56:15Z</time>
      </trkpt>
      <trkpt lat="46.48615" lon="4.68324">
        <ele>232</ele>
        <time>2018-03-28T18:57:15Z</time>
      </trkpt>
      <trkpt lat="46.48759" lon="4.68351">
        <ele>230</ele>
        <time>2018-03-28T18:58:15Z</time>
      </trkpt>
      <trkpt lat="46.48852" lon="4.6834">
        <ele>224</ele>
        <time>2018-03-28T18:59:15Z</time>
      </trkpt>
      <trkpt lat="46.50278" lon="4.6786">
        <ele>216</ele>
        <time>2018-03-28T19:00:15Z</time>
      </trkpt>
      <trkpt lat="46.50405" lon="4.6786">
        <ele>214</ele>
        <time>2018-03-28T19:01:15Z</time>
      </trkpt>
      <trkpt lat="46.51192" lon="4.68079">
        <ele>212</ele>
        <time>2018-03-28T19:02:15Z</time>
      </trkpt>
      <trkpt lat="46.52172" lon="4.68409">
        <ele>211</ele>
        <time>2018-03-28T19:03:15Z</time>
      </trkpt>
      <trkpt lat="46.52919" lon="4.68512">
        <ele>210</ele>
        <time>2018-03-28T19:04:15Z</time>
      </trkpt>
      <trkpt lat="46.53458" lon="4.68403">
        <ele>213</ele>
        <time>2018-03-28T19:05:15Z</time>
      </trkpt>
      <trkpt lat="46.53754" lon="4.68124">
        <ele>205</ele>
        <time>2018-03-28T19:06:15Z</time>
      </trkpt>
      <trkpt lat="46.55211" lon="4.68026">
        <ele>205</ele>
        <time>2018-03-28T19:07:15Z</time>
      </trkpt>
      <trkpt lat="46.56133" lon="4.67905">
        <ele>209</ele>
        <time>2018-03-28T19:08:15Z</time>
      </trkpt>
      <trkpt lat="46.58157" lon="4.67547">
        <ele>194</ele>
        <time>2018-03-28T19:09:15Z</time>
      </trkpt>
      <trkpt lat="46.58895" lon="4.67863">
        <ele>197</ele>
        <time>2018-03-28T19:10:15Z</time>
      </trkpt>
      <trkpt lat="46.5907" lon="4.67869">
        <ele>199</ele>
        <time>2018-03-28T19:11:15Z</time>
      </trkpt>
      <trkpt lat="46.59245" lon="4.67765">
        <ele>205</ele>
        <time>2018-03-28T19:12:15Z</time>
      </trkpt>
      <trkpt lat="46.60351" lon="4.6677">
        <ele>220</ele>
        <time>2018-03-28T19:13:15Z</time>
      </trkpt>
      <trkpt lat="46.6048" lon="4.66661">
        <ele>226</ele>
        <time>2018-03-28T19:14:15Z</time>
      </trkpt>
      <trkpt lat="46.60655" lon="4.66788">
        <ele>230</ele>
        <time>2018-03-28T19:15:15Z</time>
      </trkpt>
      <trkpt lat="46.60738" lon="4.66898">
        <ele>231</ele>
        <time>2018-03-28T19:16:15Z</time>
      </trkpt>
      <trkpt lat="46.61393" lon="4.66479">
        <ele>243</ele>
        <time>2018-03-28T19:17:15Z</time>
      </trkpt>
      <trkpt lat="46.61414" lon="4.66444">
        <ele>243</ele>
        <time>2018-03-28T19:18:15Z</time>
      </trkpt>
      <trkpt lat="46.61434" lon="4.66321">
        <ele>239</ele>
        <time>2018-03-28T19:19:15Z</time>
      </trkpt>
      <trkpt lat="46.61409" lon="4.66255">
        <ele>234</ele>
        <time>2018-03-28T19:20:15Z</time>
      </trkpt>
      <trkpt lat="46.61192" lon="4.66253">
        <ele>226</ele>
        <time>2018-03-28T19:21:15Z</time>
      </trkpt>
      <trkpt lat="46.6112" lon="4.66259">
        <ele>224</ele>
        <time>2018-03-28T19:22:15Z</time>
      </trkpt>
      <trkpt lat="46.61007" lon="4.66298">
        <ele>223</ele>
        <time>2018-03-28T19:23:15Z</time>
      </trkpt>
      <trkpt lat="46.60932" lon="4.6636">
        <ele>222</ele>
        <time>2018-03-28T19:24:15Z</time>
      </trkpt>
      <trkpt lat="46.60914" lon="4.66345">
        <ele>221</ele>
        <time>2018-03-28T19:25:15Z</time>
      </trkpt>
      <trkpt lat="46.60783" lon="4.66418">
        <ele>220</ele>
        <time>2018-03-28T19:26:15Z</time>
      </trkpt>
      <trkpt lat="46.60733" lon="4.66429">
        <ele>219</ele>
        <time>2018-03-28T19:27:15Z</time>
      </trkpt>
      <trkpt lat="46.60672" lon="4.66504">
        <ele>222</ele>
        <time>2018-03-28T19:28:15Z</time>
      </trkpt>
      <trkpt lat="46.60584" lon="4.6648">
        <ele>219</ele>
        <time>2018-03-28T19:29:15Z</time>
      </trkpt>
      <trkpt lat="46.60553" lon="4.66504">
        <ele>220</ele>
        <time>2018-03-28T19:30:15Z</time>
      </trkpt>
      <trkpt lat="46.60436" lon="4.66433">
        <ele>216</ele>
        <time>2018-03-28T19:31:15Z</time>
      </trkpt>
      <trkpt lat="46.60317" lon="4.66454">
        <ele>214</ele>
        <time>2018-03-28T19:32:15Z</time>
      </trkpt>
      <trkpt lat="46.60296" lon="4.66364">
        <ele>211</ele>
        <time>2018-03-28T19:33:15Z</time>
      </trkpt>
      <trkpt lat="46.60262" lon="4.66278">
        <ele>210</ele>
        <time>2018-03-28T19:34:15Z</time>
      </trkpt>
      <trkpt lat="46.60193" lon="4.66214">
        <ele>215</ele>
        <time>2018-03-28T19:35:15Z</time>
      </trkpt>
      <trkpt lat="46.59994" lon="4.66321">
        <ele>221</ele>
        <time>2018-03-28T19:36:15Z</time>
      </trkpt>
      <trkpt lat="46.59925" lon="4.66319">
        <ele>229</ele>
        <time>2018-03-28T19:37:15Z</time>
      </trkpt>
      <trkpt lat="46.59827" lon="4.66242">
        <ele>243</ele>
        <time>2018-03-28T19:38:15Z</time>
      </trkpt>
      <trkpt lat="46.59764" lon="4.66203">
        <ele>244</ele>
        <time>2018-03-28T19:39:15Z</time>
      </trkpt>
      <trkpt lat="46.59681" lon="4.66126">
        <ele>244</ele>
        <time>2018-03-28T19:40:15Z</time>
      </trkpt>
      <trkpt lat="46.59596" lon="4.66081">
        <ele>239</ele>
        <time>2018-03-28T19:41:15Z</time>
      </trkpt>
      <trkpt lat="46.59515" lon="4.65946">
        <ele>238</ele>
        <time>2018-03-28T19:42:15Z</time>
      </trkpt>
      <trkpt lat="46.59444" lon="4.65767">
        <ele>241</ele>
        <time>2018-03-28T19:43:15Z</time>
      </trkpt>
      <trkpt lat="46.59325" lon="4.65886">
        <ele>231</ele>
        <time>2018-03-28T19:44:15Z</time>
      </trkpt>
      <trkpt lat="46.59177" lon="4.65839">
        <ele>228</ele>
        <time>2018-03-28T19:45:15Z</time>
      </trkpt>
      <trkpt lat="46.59128" lon="4.65787">
        <ele>226</ele>
        <time>2018-03-28T19:46:15Z</time>
      </trkpt>
      <trkpt lat="46.59052" lon="4.65742">
        <ele>223</ele>
        <time>2018-03-28T19:47:15Z</time>
      </trkpt>
      <trkpt lat="46.5895" lon="4.6568">
        <ele>217</ele>
        <time>2018-03-28T19:48:15Z</time>
      </trkpt>
      <trkpt lat="46.58901" lon="4.65613">
        <ele>213</ele>
        <time>2018-03-28T19:49:15Z</time>
      </trkpt>
      <trkpt lat="46.58543" lon="4.6548">
        <ele>217</ele>
        <time>2018-03-28T19:50:15Z</time>
      </trkpt>
      <trkpt lat="46.58463" lon="4.65497">
        <ele>224</ele>
        <time>2018-03-28T19:51:15Z</time>
      </trkpt>
      <trkpt lat="46.58106" lon="4.65474">
        <ele>247</ele>
        <time>2018-03-28T19:52:15Z</time>
      </trkpt>
      <trkpt lat="46.57941" lon="4.65407">
        <ele>246</ele>
        <time>2018-03-28T19:53:15Z</time>
      </trkpt>
      <trkpt lat="46.57903" lon="4.65405">
        <ele>246</ele>
        <time>2018-03-28T19:54:15Z</time>
      </trkpt>
      <trkpt lat="46.57816" lon="4.65332">
        <ele>248</ele>
        <time>2018-03-28T19:55:15Z</time>
      </trkpt>
      <trkpt lat="46.57804" lon="4.65296">
        <ele>250</ele>
        <time>2018-03-28T19:56:15Z</time>
      </trkpt>
      <trkpt lat="46.57783" lon="4.65251">
        <ele>252</ele>
        <time>2018-03-28T19:57:15Z</time>
      </trkpt>
      <trkpt lat="46.57639" lon="4.65233">
        <ele>254</ele>
        <time>2018-03-28T19:58:15Z</time>
      </trkpt>
      <trkpt lat="46.57519" lon="4.6506">
        <ele>262</ele>
        <time>2018-03-28T19:59:15Z</time>
      </trkpt>
      <trkpt lat="46.57401" lon="4.6492">
        <ele>267</ele>
        <time>2018-03-28T20:00:15Z</time>
      </trkpt>
      <trkpt lat="46.56984" lon="4.64532">
        <ele>280</ele>
        <time>2018-03-28T20:01:15Z</time>
      </trkpt>
      <trkpt lat="46.56906" lon="4.6442">
        <ele>281</ele>
        <time>2018-03-28T20:02:15Z</time>
      </trkpt>
      <trkpt lat="46.56838" lon="4.64251">
        <ele>276</ele>
        <time>2018-03-28T20:03:15Z</time>
      </trkpt>
      <trkpt lat="46.56695" lon="4.64126">
        <ele>259</ele>
        <time>2018-03-28T20:04:15Z</time>
      </trkpt>
      <trkpt lat="46.56664" lon="4.64092">
        <ele>256</ele>
        <time>2018-03-28T20:05:15Z</time>
      </trkpt>
      <trkpt lat="46.56012" lon="4.63631">
        <ele>248</ele>
        <time>2018-03-28T20:06:15Z</time>
      </trkpt>
      <trkpt lat="46.55966" lon="4.6366">
        <ele>245</ele>
        <time>2018-03-28T20:07:15Z</time>
      </trkpt>
      <trkpt lat="46.55943" lon="4.63689">
        <ele>243</ele>
        <time>2018-03-28T20:08:15Z</time>
      </trkpt>
      <trkpt lat="46.55895" lon="4.63811">
        <ele>240</ele>
        <time>2018-03-28T20:09:15Z</time>
      </trkpt>
      <trkpt lat="46.55797" lon="4.63961">
        <ele>233</ele>
        <time>2018-03-28T20:10:15Z</time>
      </trkpt>
      <trkpt lat="46.55664" lon="4.64098">
        <ele>231</ele>
        <time>2018-03-28T20:11:15Z</time>
      </trkpt>
      <trkpt lat="46.55392" lon="4.643">
        <ele>234</ele>
        <time>2018-03-28T20:12:15Z</time>
      </trkpt>
      <trkpt lat="46.55349" lon="4.6428">
        <ele>235</ele>
        <time>2018-03-28T20:13:15Z</time>
      </trkpt>
      <trkpt lat="46.55287" lon="4.64342">
        <ele>234</ele>
        <time>2018-03-28T20:14:15Z</time>
      </trkpt>
      <trkpt lat="46.55255" lon="4.64345">
        <ele>233</ele>
        <time>2018-03-28T20:15:15Z</time>
      </trkpt>
      <trkpt lat="46.55198" lon="4.64409">
        <ele>229</ele>
        <time>2018-03-28T20:16:15Z</time>
      </trkpt>
      <trkpt lat="46.55085" lon="4.64502">
        <ele>220</ele>
        <time>2018-03-28T20:17:15Z</time>
      </trkpt>
      <trkpt lat="46.55014" lon="4.64573">
        <ele>217</ele>
        <time>2018-03-28T20:18:15Z</time>
      </trkpt>
      <trkpt lat="46.54963" lon="4.64616">
        <ele>214</ele>
        <time>2018-03-28T20:19:15Z</time>
      </trkpt>
      <trkpt lat="46.54923" lon="4.64578">
        <ele>213</ele>
        <time>2018-03-28T20:20:15Z</time>
      </trkpt>
      <trkpt lat="46.54892" lon="4.64522">
        <ele>212</ele>
        <time>2018-03-28T20:21:15Z</time>
      </trkpt>
      <trkpt lat="46.54717" lon="4.64511">
        <ele>209</ele>
        <time>2018-03-28T20:22:15Z</time>
      </trkpt>
      <trkpt lat="46.54665" lon="4.64479">
        <ele>208</ele>
        <time>2018-03-28T20:23:15Z</time>
      </trkpt>
      <trkpt lat="46.54617" lon="4.64391">
        <ele>208</ele>
        <time>2018-03-28T20:24:15Z</time>
      </trkpt>
      <trkpt lat="46.54489" lon="4.64289">
        <ele>206</ele>
        <time>2018-03-28T20:25:15Z</time>
      </trkpt>
      <trkpt lat="46.54448" lon="4.64208">
        <ele>205</ele>
        <time>2018-03-28T20:26:15Z</time>
      </trkpt>
      <trkpt lat="46.54367" lon="4.63929">
        <ele>203</ele>
        <time>2018-03-28T20:27:15Z</time>
      </trkpt>
      <trkpt lat="46.54335" lon="4.63898">
        <ele>201</ele>
        <time>2018-03-28T20:28:15Z</time>
      </trkpt>
      <trkpt lat="46.54166" lon="4.63842">
        <ele>201</ele>
        <time>2018-03-28T20:29:15Z</time>
      </trkpt>
      <trkpt lat="46.54048" lon="4.63972">
        <ele>201</ele>
        <time>2018-03-28T20:30:15Z</time>
      </trkpt>
      <trkpt lat="46.53976" lon="4.64012">
        <ele>201</ele>
        <time>2018-03-28T20:31:15Z</time>
      </trkpt>
      <trkpt lat="46.53747" lon="4.6388">
        <ele>217</ele>
        <time>2018-03-28T20:32:15Z</time>
      </trkpt>
      <trkpt lat="46.53646" lon="4.6377">
        <ele>223</ele>
        <time>2018-03-28T20:33:15Z</time>
      </trkpt>
      <trkpt lat="46.53622" lon="4.63762">
        <ele>224</ele>
        <time>2018-03-28T20:34:15Z</time>
      </trkpt>
      <trkpt lat="46.53597" lon="4.63806">
        <ele>226</ele>
        <time>2018-03-28T20:35:15Z</time>
      </trkpt>
      <trkpt lat="46.53567" lon="4.63833">
        <ele>227</ele>
        <time>2018-03-28T20:36:15Z</time>
      </trkpt>
      <trkpt lat="46.53481" lon="4.63961">
        <ele>221</ele>
        <time>2018-03-28T20:37:15Z</time>
      </trkpt>
      <trkpt lat="46.53392" lon="4.64008">
        <ele>218</ele>
        <time>2018-03-28T20:38:15Z</time>
      </trkpt>
      <trkpt lat="46.53173" lon="4.64219">
        <ele>219</ele>
        <time>2018-03-28T20:39:15Z</time>
      </trkpt>
      <trkpt lat="46.52988" lon="4.64262">
        <ele>230</ele>
        <time>2018-03-28T20:40:15Z</time>
      </trkpt>
      <trkpt lat="46.529" lon="4.64225">
        <ele>233</ele>
        <time>2018-03-28T20:41:15Z</time>
      </trkpt>
      <trkpt lat="46.52827" lon="4.64226">
        <ele>236</ele>
        <time>2018-03-28T20:42:15Z</time>
      </trkpt>
      <trkpt lat="46.52705" lon="4.64192">
        <ele>241</ele>
        <time>2018-03-28T20:43:15Z</time>
      </trkpt>
      <trkpt lat="46.52638" lon="4.64114">
        <ele>247</ele>
        <time>2018-03-28T20:44:15Z</time>
      </trkpt>
      <trkpt lat="46.52525" lon="4.64077">
        <ele>254</ele>
        <time>2018-03-28T20:45:15Z</time>
      </trkpt>
      <trkpt lat="46.52348" lon="4.63997">
        <ele>262</ele>
        <time>2018-03-28T20:46:15Z</time>
      </trkpt>
      <trkpt lat="46.52256" lon="4.6403">
        <ele>264</ele>
        <time>2018-03-28T20:47:15Z</time>
      </trkpt>
      <trkpt lat="46.52134" lon="4.64008">
        <ele>272</ele>
        <time>2018-03-28T20:48:15Z</time>
      </trkpt>
      <trkpt lat="46.52031" lon="4.64024">
        <ele>280</ele>
        <time>2018-03-28T20:49:15Z</time>
      </trkpt>
      <trkpt lat="46.51934" lon="4.63992">
        <ele>287</ele>
        <time>2018-03-28T20:50:15Z</time>
      </trkpt>
      <trkpt lat="46.51833" lon="4.63936">
        <ele>293</ele>
        <time>2018-03-28T20:51:15Z</time>
      </trkpt>
      <trkpt lat="46.51742" lon="4.63902">
        <ele>297</ele>
        <time>2018-03-28T20:52:15Z</time>
      </trkpt>
      <trkpt lat="46.51497" lon="4.639">
        <ele>297</ele>
        <time>2018-03-28T20:53:15Z</time>
      </trkpt>
      <trkpt lat="46.51423" lon="4.63929">
        <ele>295</ele>
        <time>2018-03-28T20:54:15Z</time>
      </trkpt>
      <trkpt lat="46.5137" lon="4.63933">
        <ele>293</ele>
        <time>2018-03-28T20:55:15Z</time>
      </trkpt>
      <trkpt lat="46.51372" lon="4.63876">
        <ele>294</ele>
        <time>2018-03-28T20:56:15Z</time>
      </trkpt>
      <trkpt lat="46.51356" lon="4.63831">
        <ele>293</ele>
        <time>2018-03-28T20:57:15Z</time>
      </trkpt>
      <trkpt lat="46.51211" lon="4.63856">
        <ele>283</ele>
        <time>2018-03-28T20:58:15Z</time>
      </trkpt>
      <trkpt lat="46.51173" lon="4.63894">
        <ele>282</ele>
        <time>2018-03-28T20:59:15Z</time>
      </trkpt>
      <trkpt lat="46.50932" lon="4.63994">
        <ele>271</ele>
        <time>2018-03-28T21:00:15Z</time>
      </trkpt>
      <trkpt lat="46.50831" lon="4.64064">
        <ele>265</ele>
        <time>2018-03-28T21:01:15Z</time>
      </trkpt>
      <trkpt lat="46.50755" lon="4.64078">
        <ele>261</ele>
        <time>2018-03-28T21:02:15Z</time>
      </trkpt>
      <trkpt lat="46.50701" lon="4.64093">
        <ele>257</ele>
        <time>2018-03-28T21:03:15Z</time>
      </trkpt>
      <trkpt lat="46.50556" lon="4.64105">
        <ele>253</ele>
        <time>2018-03-28T21:04:15Z</time>
      </trkpt>
      <trkpt lat="46.50405" lon="4.64149">
        <ele>258</ele>
        <time>2018-03-28T21:05:15Z</time>
      </trkpt>
      <trkpt lat="46.503" lon="4.64158">
        <ele>263</ele>
        <time>2018-03-28T21:06:15Z</time>
      </trkpt>
      <trkpt lat="46.50251" lon="4.64197">
        <ele>264</ele>
        <time>2018-03-28T21:07:15Z</time>
      </trkpt>
      <trkpt lat="46.50215" lon="4.64192">
        <ele>263</ele>
        <time>2018-03-28T21:08:15Z</time>
      </trkpt>
      <trkpt lat="46.50185" lon="4.64163">
        <ele>262</ele>
        <time>2018-03-28T21:09:15Z</time>
      </trkpt>
      <trkpt lat="46.50065" lon="4.64113">
        <ele>267</ele>
        <time>2018-03-28T21:10:15Z</time>
      </trkpt>
      <trkpt lat="46.50022" lon="4.64074">
        <ele>269</ele>
        <time>2018-03-28T21:11:15Z</time>
      </trkpt>
      <trkpt lat="46.5002" lon="4.64277">
        <ele>282</ele>
        <time>2018-03-28T21:12:15Z</time>
      </trkpt>
      <trkpt lat="46.49859" lon="4.64275">
        <ele>302</ele>
        <time>2018-03-28T21:13:15Z</time>
      </trkpt>
      <trkpt lat="46.4974" lon="4.64248">
        <ele>314</ele>
        <time>2018-03-28T21:14:15Z</time>
      </trkpt>
      <trkpt lat="46.49626" lon="4.64252">
        <ele>326</ele>
        <time>2018-03-28T21:15:15Z</time>
      </trkpt>
      <trkpt lat="46.49444" lon="4.64259">
        <ele>340</ele>
        <time>2018-03-28T21:16:15Z</time>
      </trkpt>
      <trkpt lat="46.49216" lon="4.64344">
        <ele>355</ele>
        <time>2018-03-28T21:17:15Z</time>
      </trkpt>
      <trkpt lat="46.49143" lon="4.64362">
        <ele>354</ele>
        <time>2018-03-28T21:18:15Z</time>
      </trkpt>
      <trkpt lat="46.49057" lon="4.64418">
        <ele>353</ele>
        <time>2018-03-28T21:19:15Z</time>
      </trkpt>
      <trkpt lat="46.48848" lon="4.64443">
        <ele>355</ele>
        <time>2018-03-28T21:20:15Z</time>
      </trkpt>
      <trkpt lat="46.48831" lon="4.64419">
        <ele>353</ele>
        <time>2018-03-28T21:21:15Z</time>
      </trkpt>
      <trkpt lat="46.48708" lon="4.64455">
        <ele>356</ele>
        <time>2018-03-28T21:22:15Z</time>
      </trkpt>
      <trkpt lat="46.48625" lon="4.64495">
        <ele>363</ele>
        <time>2018-03-28T21:23:15Z</time>
      </trkpt>
      <trkpt lat="46.4855" lon="4.6449">
        <ele>363</ele>
        <time>2018-03-28T21:24:15Z</time>
      </trkpt>
      <trkpt lat="46.48523" lon="4.64513">
        <ele>365</ele>
        <time>2018-03-28T21:25:15Z</time>
      </trkpt>
      <trkpt lat="46.48391" lon="4.64522">
        <ele>365</ele>
        <time>2018-03-28T21:26:15Z</time>
      </trkpt>
      <trkpt lat="46.48239" lon="4.64596">
        <ele>368</ele>
        <time>2018-03-28T21:27:15Z</time>
      </trkpt>
      <trkpt lat="46.48064" lon="4.64641">
        <ele>369</ele>
        <time>2018-03-28T21:28:15Z</time>
      </trkpt>
      <trkpt lat="46.47926" lon="4.64721">
        <ele>370</ele>
        <time>2018-03-28T21:29:15Z</time>
      </trkpt>
      <trkpt lat="46.47816" lon="4.64798">
        <ele>362</ele>
        <time>2018-03-28T21:30:15Z</time>
      </trkpt>
      <trkpt lat="46.47818" lon="4.64732">
        <ele>363</ele>
        <time>2018-03-28T21:31:15Z</time>
      </trkpt>
      <trkpt lat="46.47768" lon="4.64742">
        <ele>360</ele>
        <time>2018-03-28T21:32:15Z</time>
      </trkpt>
      <trkpt lat="46.4771" lon="4.64726">
        <ele>360</ele>
        <time>2018-03-28T21:33:15Z</time>
      </trkpt>
      <trkpt lat="46.47552" lon="4.64735">
        <ele>356</ele>
        <time>2018-03-28T21:34:15Z</time>
      </trkpt>
      <trkpt lat="46.47305" lon="4.64838">
        <ele>352</ele>
        <time>2018-03-28T21:35:15Z</time>
      </trkpt>
      <trkpt lat="46.4731" lon="4.64916">
        <ele>347</ele>
        <time>2018-03-28T21:36:15Z</time>
      </trkpt>
      <trkpt lat="46.47346" lon="4.65092">
        <ele>339</ele>
        <time>2018-03-28T21:37:15Z</time>
      </trkpt>
      <trkpt lat="46.4738" lon="4.65147">
        <ele>335</ele>
        <time>2018-03-28T21:38:15Z</time>
      </trkpt>
      <trkpt lat="46.47399" lon="4.65239">
        <ele>327</ele>
        <time>2018-03-28T21:39:15Z</time>
      </trkpt>
      <trkpt lat="46.47407" lon="4.65338">
        <ele>318</ele>
        <time>2018-03-28T21:40:15Z</time>
      </trkpt>
      <trkpt lat="46.47375" lon="4.65336">
        <ele>316</ele>
        <time>2018-03-28T21:41:15Z</time>
      </trkpt>
      <trkpt lat="46.47342" lon="4.65341">
        <ele>313</ele>
        <time>2018-03-28T21:42:15Z</time>
      </trkpt>
      <trkpt lat="46.47301" lon="4.65298">
        <ele>312</ele>
        <time>2018-03-28T21:43:15Z</time>
      </trkpt>
      <trkpt lat="46.47268" lon="4.65307">
        <ele>307</ele>
        <time>2018-03-28T21:44:15Z</time>
      </trkpt>
      <trkpt lat="46.47222" lon="4.65359">
        <ele>300</ele>
        <time>2018-03-28T21:45:15Z</time>
      </trkpt>
      <trkpt lat="46.47162" lon="4.65415">
        <ele>299</ele>
        <time>2018-03-28T21:46:15Z</time>
      </trkpt>
      <trkpt lat="46.47131" lon="4.65466">
        <ele>301</ele>
        <time>2018-03-28T21:47:15Z</time>
      </trkpt>
      <trkpt lat="46.47091" lon="4.65531">
        <ele>303</ele>
        <time>2018-03-28T21:48:15Z</time>
      </trkpt>
      <trkpt lat="46.47061" lon="4.65581">
        <ele>306</ele>
        <time>2018-03-28T21:49:15Z</time>
      </trkpt>
      <trkpt lat="46.47044" lon="4.6563">
        <ele>306</ele>
        <time>2018-03-28T21:50:15Z</time>
      </trkpt>
      <trkpt lat="46.47004" lon="4.65621">
        <ele>312</ele>
        <time>2018-03-28T21:51:15Z</time>
      </trkpt>
      <trkpt lat="46.46795" lon="4.65688">
        <ele>315</ele>
        <time>2018-03-28T21:52:15Z</time>
      </trkpt>
      <trkpt lat="46.467" lon="4.65675">
        <ele>314</ele>
        <time>2018-03-28T21:53:15Z</time>
      </trkpt>
      <trkpt lat="46.46655" lon="4.65657">
        <ele>311</ele>
        <time>2018-03-28T21:54:15Z</time>
      </trkpt>
      <trkpt lat="46.46613" lon="4.65623">
        <ele>309</ele>
        <time>2018-03-28T21:55:15Z</time>
      </trkpt>
      <trkpt lat="46.46573" lon="4.65608">
        <ele>306</ele>
        <time>2018-03-28T21:56:15Z</time>
      </trkpt>
      <trkpt lat="46.46498" lon="4.65619">
        <ele>296</ele>
        <time>2018-03-28T21:57:15Z</time>
      </trkpt>
      <trkpt lat="46.4648" lon="4.65599">
        <ele>295</ele>
        <time>2018-03-28T21:58:15Z</time>
      </trkpt>
      <trkpt lat="46.46449" lon="4.65621">
        <ele>291</ele>
        <time>2018-03-28T21:59:15Z</time>
      </trkpt>
      <trkpt lat="46.46415" lon="4.65572">
        <ele>288</ele>
        <time>2018-03-28T22:00:15Z</time>
      </trkpt>
      <trkpt lat="46.46369" lon="4.65574">
        <ele>290</ele>
        <time>2018-03-28T22:01:15Z</time>
      </trkpt>
      <trkpt lat="46.46333" lon="4.65554">
        <ele>292</ele>
        <time>2018-03-28T22:02:15Z</time>
      </trkpt>
      <trkpt lat="46.46296" lon="4.65488">
        <ele>299</ele>
        <time>2018-03-28T22:03:15Z</time>
      </trkpt>
      <trkpt lat="46.46285" lon="4.65442">
        <ele>303</ele>
        <time>2018-03-28T22:04:15Z</time>
      </trkpt>
      <trkpt lat="46.46286" lon="4.65343">
        <ele>308</ele>
        <time>2018-03-28T22:05:15Z</time>
      </trkpt>
      <trkpt lat="46.46266" lon="4.65322">
        <ele>314</ele>
        <time>2018-03-28T22:06:15Z</time>
      </trkpt>
      <trkpt lat="46.46203" lon="4.65372">
        <ele>314</ele>
        <time>2018-03-28T22:07:15Z</time>
      </trkpt>
      <trkpt lat="46.46088" lon="4.65334">
        <ele>312</ele>
        <time>2018-03-28T22:08:15Z</time>
      </trkpt>
      <trkpt lat="46.45851" lon="4.65179">
        <ele>293</ele>
        <time>2018-03-28T22:09:15Z</time>
      </trkpt>
      <trkpt lat="46.4581" lon="4.65139">
        <ele>289</ele>
        <time>2018-03-28T22:10:15Z</time>
      </trkpt>
      <trkpt lat="46.45773" lon="4.64977">
        <ele>295</ele>
        <time>2018-03-28T22:11:15Z</time>
      </trkpt>
      <trkpt lat="46.45744" lon="4.64952">
        <ele>289</ele>
        <time>2018-03-28T22:12:15Z</time>
      </trkpt>
      <trkpt lat="46.45692" lon="4.64977">
        <ele>278</ele>
        <time>2018-03-28T22:13:15Z</time>
      </trkpt>
      <trkpt lat="46.45695" lon="4.65006">
        <ele>278</ele>
        <time>2018-03-28T22:14:15Z</time>
      </trkpt>
      <trkpt lat="46.45679" lon="4.65012">
        <ele>274</ele>
        <time>2018-03-28T22:15:15Z</time>
      </trkpt>
      <trkpt lat="46.45639" lon="4.64964">
        <ele>272</ele>
        <time>2018-03-28T22:16:15Z</time>
      </trkpt>
      <trkpt lat="46.45591" lon="4.64947">
        <ele>272</ele>
        <time>2018-03-28T22:17:15Z</time>
      </trkpt>
      <trkpt lat="46.45573" lon="4.64976">
        <ele>273</ele>
        <time>2018-03-28T22:18:15Z</time>
      </trkpt>
      <trkpt lat="46.45606" lon="4.65156">
        <ele>273</ele>
        <time>2018-03-28T22:19:15Z</time>
      </trkpt>
      <trkpt lat="46.45695" lon="4.65405">
        <ele>275</ele>
        <time>2018-03-28T22:20:15Z</time>
      </trkpt>
      <trkpt lat="46.45729" lon="4.65523">
        <ele>274</ele>
        <time>2018-03-28T22:21:15Z</time>
      </trkpt>
      <trkpt lat="46.45782" lon="4.6574">
        <ele>275</ele>
        <time>2018-03-28T22:22:15Z</time>
      </trkpt>
      <trkpt lat="46.45772" lon="4.65888">
        <ele>282</ele>
        <time>2018-03-28T22:23:15Z</time>
      </trkpt>
      <trkpt lat="46.45732" lon="4.66008">
        <ele>284</ele>
        <time>2018-03-28T22:24:15Z</time>
      </trkpt>
      <trkpt lat="46.45634" lon="4.66068">
        <ele>285</ele>
        <time>2018-03-28T22:25:15Z</time>
      </trkpt>
      <trkpt lat="46.45535" lon="4.6607">
        <ele>281</ele>
        <time>2018-03-28T22:26:15Z</time>
      </trkpt>
      <trkpt lat="46.45461" lon="4.66087">
        <ele>276</ele>
        <time>2018-03-28T22:27:15Z</time>
      </trkpt>
      <trkpt lat="46.45378" lon="4.6615">
        <ele>268</ele>
        <time>2018-03-28T22:28:15Z</time>
      </trkpt>
      <trkpt lat="46.45284" lon="4.66251">
        <ele>264</ele>
        <time>2018-03-28T22:29:15Z</time>
      </trkpt>
      <trkpt lat="46.45205" lon="4.66289">
        <ele>270</ele>
        <time>2018-03-28T22:30:15Z</time>
      </trkpt>
      <trkpt lat="46.45136" lon="4.66369">
        <ele>277</ele>
        <time>2018-03-28T22:31:15Z</time>
      </trkpt>
      <trkpt lat="46.45083" lon="4.66392">
        <ele>280</ele>
        <time>2018-03-28T22:32:15Z</time>
      </trkpt>
      <trkpt lat="46.45072" lon="4.66171">
        <ele>288</ele>
        <time>2018-03-28T22:33:15Z</time>
      </trkpt>
      <trkpt lat="46.45087" lon="4.65978">
        <ele>289</ele>
        <time>2018-03-28T22:34:15Z</time>
      </trkpt>
      <trkpt lat="46.45056" lon="4.65918">
        <ele>293</ele>
        <time>2018-03-28T22:35:15Z</time>
      </trkpt>
      <trkpt lat="46.45015" lon="4.65905">
        <ele>298</ele>
        <time>2018-03-28T22:36:15Z</time>
      </trkpt>
      <trkpt lat="46.44979" lon="4.658">
        <ele>301</ele>
        <time>2018-03-28T22:37:15Z</time>
      </trkpt>
      <trkpt lat="46.44867" lon="4.65701">
        <ele>314</ele>
        <time>2018-03-28T22:38:15Z</time>
      </trkpt>
      <trkpt lat="46.44867" lon="4.65587">
        <ele>316</ele>
        <time>2018-03-28T22:39:15Z</time>
      </trkpt>
      <trkpt lat="46.44845" lon="4.65557">
        <ele>319</ele>
        <time>2018-03-28T22:40:15Z</time>
      </trkpt>
      <trkpt lat="46.44774" lon="4.65551">
        <ele>312</ele>
        <time>2018-03-28T22:41:15Z</time>
      </trkpt>
      <trkpt lat="46.4463" lon="4.65671">
        <ele>282</ele>
        <time>2018-03-28T22:42:15Z</time>
      </trkpt>
      <trkpt lat="46.44582" lon="4.65714">
        <ele>271</ele>
        <time>2018-03-28T22:43:15Z</time>
      </trkpt>
      <trkpt lat="46.44551" lon="4.65712">
        <ele>264</ele>
        <time>2018-03-28T22:44:15Z</time>
      </trkpt>
      <trkpt lat="46.44519" lon="4.65699">
        <ele>257</ele>
        <time>2018-03-28T22:45:15Z</time>
      </trkpt>
      <trkpt lat="46.44369" lon="4.65731">
        <ele>240</ele>
        <time>2018-03-28T22:46:15Z</time>
      </trkpt>
      <trkpt lat="46.44271" lon="4.6542">
        <ele>244</ele>
        <time>2018-03-28T22:47:15Z</time>
      </trkpt>
      <trkpt lat="46.44104" lon="4.655">
        <ele>263</ele>
        <time>2018-03-28T22:48:15Z</time>
      </trkpt>
      <trkpt lat="46.44098" lon="4.65465">
        <ele>265</ele>
        <time>2018-03-28T22:49:15Z</time>
      </trkpt>
      <trkpt lat="46.44068" lon="4.65476">
        <ele>267</ele>
        <time>2018-03-28T22:50:15Z</time>
      </trkpt>
      <trkpt lat="46.44042" lon="4.65454">
        <ele>270</ele>
        <time>2018-03-28T22:51:15Z</time>
      </trkpt>
      <trkpt lat="46.43932" lon="4.65409">
        <ele>276</ele>
        <time>2018-03-28T22:52:15Z</time>
      </trkpt>
      <trkpt lat="46.43897" lon="4.65418">
        <ele>276</ele>
        <time>2018-03-28T22:53:15Z</time>
      </trkpt>
      <trkpt lat="46.43841" lon="4.65382">
        <ele>275</ele>
        <time>2018-03-28T22:54:15Z</time>
      </trkpt>
      <trkpt lat="46.43801" lon="4.65476">
        <ele>273</ele>
        <time>2018-03-28T22:55:15Z</time>
      </trkpt>
      <trkpt lat="46.43851" lon="4.65525">
        <ele>274</ele>
        <time>2018-03-28T22:56:15Z</time>
      </trkpt>
      <trkpt lat="46.43805" lon="4.65678">
        <ele>266</ele>
        <time>2018-03-28T22:57:15Z</time>
      </trkpt>
      <trkpt lat="46.43761" lon="4.65809">
        <ele>252</ele>
        <time>2018-03-28T22:58:15Z</time>
      </trkpt>
      <trkpt lat="46.43691" lon="4.65793">
        <ele>254</ele>
        <time>2018-03-28T22:59:15Z</time>
      </trkpt>
      <trkpt lat="46.43659" lon="4.65776">
        <ele>255</ele>
        <time>2018-03-28T23:00:15Z</time>
      </trkpt>
      <trkpt lat="46.43687" lon="4.65714">
        <ele>260</ele>
        <time>2018-03-28T23:01:15Z</time>
      </trkpt>
      <trkpt lat="46.43699" lon="4.65698">
        <ele>262</ele>
        <time>2018-03-28T23:02:15Z</time>
      </trkpt>
      <trkpt lat="46.4372" lon="4.65656">
        <ele>265</ele>
        <time>2018-03-28T23:03:15Z</time>
      </trkpt>
    </trkseg>
  </trk>
</gpx>